This is the latest recevied weather packets stored in our database for station/object W1GK. If no packets are shown the sender has not sent any weather packets the latest 1 day(s).
| Time | Temp. | Humidity | Pressure | Rain* | Wind** | Luminosity | Snow |
|---|---|---|---|---|---|---|---|
| 1778040600 | 19.44° C | 27% | 1011.3 hPa | 0 mm | 2.24 m/s, 165° | 0 W/m² | - |
| 1778040000 | 19.44° C | 26% | 1011.1 hPa | 0 mm | 1.79 m/s, 135° | 0 W/m² | - |
| 1778039399 | 20° C | 26% | 1011 hPa | 0 mm | 1.34 m/s, 196° | 0 W/m² | - |
| 1778038800 | 20° C | 26% | 1010.8 hPa | 0 mm | 1.79 m/s, 138° | 0 W/m² | - |
| 1778038199 | 20° C | 25% | 1010.6 hPa | 0 mm | 1.34 m/s, 176° | 0 W/m² | - |
| 1778037599 | 20.56° C | 25% | 1010.5 hPa | 0 mm | 1.79 m/s, 216° | 0 W/m² | - |
| 1778037000 | 20.56° C | 25% | 1010.3 hPa | 0 mm | 2.24 m/s, 238° | 0 W/m² | - |
| 1778036400 | 20.56° C | 25% | 1010.2 hPa | 0 mm | 1.79 m/s, 219° | 0 W/m² | - |
| 1778035801 | 21.11° C | 24% | 1009.9 hPa | 0 mm | 1.79 m/s, 242° | 0 W/m² | - |
| 1778035198 | 21.11° C | 24% | 1009.8 hPa | 0 mm | 2.24 m/s, 165° | 0 W/m² | - |
| 1778034599 | 21.67° C | 24% | 1009.7 hPa | 0 mm | 1.34 m/s, 193° | 5 W/m² | - |
| 1778034000 | 21.67° C | 23% | 1009.7 hPa | 0 mm | 1.34 m/s, 250° | 11 W/m² | - |
| 1778033401 | 22.22° C | 23% | 1009.5 hPa | 0 mm | 2.24 m/s, 216° | 12 W/m² | - |
| 1778032800 | 22.22° C | 22% | 1009.4 hPa | 0 mm | 1.34 m/s, 212° | 18 W/m² | - |
| 1778032199 | 22.22° C | 22% | 1009.4 hPa | 0 mm | 1.79 m/s, 296° | 19 W/m² | - |
| 1778031599 | 22.78° C | 21% | 1009.3 hPa | 0 mm | 1.79 m/s, 237° | 25 W/m² | - |
| 1778030998 | 23.33° C | 20% | 1009.2 hPa | 0 mm | 1.79 m/s, 226° | 148 W/m² | - |
| 1778030400 | 23.89° C | 19% | 1009.2 hPa | 0 mm | 2.24 m/s, 221° | 178 W/m² | - |
| 1778029798 | 24.44° C | 18% | 1009.1 hPa | 0 mm | 2.24 m/s, 220° | 211 W/m² | - |
| 1778029199 | 24.44° C | 16% | 1009.1 hPa | 0 mm | 0.45 m/s, 139° | 241 W/m² | - |
| 1778028598 | 24.44° C | 16% | 1009.1 hPa | 0 mm | 1.34 m/s, 160° | 274 W/m² | - |
| 1778027999 | 23.89° C | 16% | 1009 hPa | 0 mm | 0.45 m/s, 79° | 304 W/m² | - |
| 1778027398 | 25° C | 16% | 1008.9 hPa | 0 mm | 1.34 m/s, 340° | 338 W/m² | - |
| 1778026799 | 25.56° C | 15% | 1008.9 hPa | 0 mm | 0.45 m/s, 318° | 369 W/m² | - |
| 1778026199 | 25.56° C | 15% | 1008.9 hPa | 0 mm | 0 m/s | 403 W/m² | - |
* Rain latest hour (hover to see other rain measurements)
** Current wind speed in m/s (hover to see current wind gust speed)